Wisbech, United Kingdom
Current Conditions -  °F | °C
As of 9:50 PM on Friday 28 Nov 2014 (Local Time) from EGYM Reporting Station
Haze Haze  
Wind Chill: 52°   Ceiling: 17000
Heat Index: 52°   Visibility: 5mi
Dew Point: 48°   Wind: 10mph
Humidity: 88%   Direction: 110°ESE
Pressure: 29.77"   Gusts: NA
Location:  52.67°N, 0.16°E
Report Text: EGYM 282150Z AUTO 11009KT 8000 HZ SCT080/// BKN170/// 11/09 Q1008 RERA
Loading
Personal Weather Stations






























Interactive Weather Map New forecast layout! Learn more

10-Day Weather Forecast

Advertisements
Track Severe Weather on mobile